createdAt,value
2022-10-23T00:01:45.094Z,3.90
2022-10-23T00:04:14.958Z,4.38
2022-10-23T00:06:43.204Z,3.75
2022-10-23T00:09:13.670Z,4.07
2022-10-23T00:11:44.503Z,4.22
2022-10-23T00:14:13.688Z,3.95
2022-10-23T00:16:43.104Z,3.50
2022-10-23T00:19:11.111Z,3.92
2022-10-23T00:21:39.494Z,3.92
2022-10-23T00:26:40.429Z,3.40
2022-10-23T00:29:09.399Z,2.97
2022-10-23T00:31:37.721Z,3.78
2022-10-23T00:34:08.396Z,3.53
2022-10-23T00:36:36.890Z,3.10
2022-10-23T00:39:05.479Z,3.70
2022-10-23T00:41:33.846Z,3.78
2022-10-23T00:44:06.727Z,3.65
2022-10-23T00:46:35.635Z,4.57
2022-10-23T00:49:05.161Z,3.85
2022-10-23T00:51:39.073Z,3.72
2022-10-23T00:54:24.819Z,3.72
2022-10-23T00:56:55.632Z,4.78
2022-10-23T00:59:23.709Z,3.72
2022-10-23T01:01:51.987Z,3.38
2022-10-23T01:04:20.726Z,4.10
2022-10-23T01:09:27.474Z,3.08
2022-10-23T01:14:33.376Z,2.80
2022-10-23T01:17:07.238Z,3.20
2022-10-23T01:19:47.710Z,3.15
2022-10-23T01:22:37.194Z,3.42
2022-10-23T01:25:21.181Z,2.97
2022-10-23T01:27:55.229Z,2.90
2022-10-23T01:30:23.653Z,3.25
2022-10-23T01:32:56.118Z,2.75
2022-10-23T01:38:01.668Z,2.85
2022-10-23T01:40:34.369Z,2.65
2022-10-23T01:43:09.405Z,3.47
2022-10-23T01:45:41.647Z,2.85
2022-10-23T01:48:13.788Z,3.90
2022-10-23T01:50:43.744Z,2.75
2022-10-23T01:53:14.098Z,3.20
2022-10-23T01:55:43.525Z,2.97
2022-10-23T01:58:13.657Z,2.83
2022-10-23T02:00:44.071Z,2.75
2022-10-23T02:03:14.400Z,3.70
2022-10-23T02:05:42.863Z,3.50
2022-10-23T02:08:12.906Z,3.22
2022-10-23T02:10:49.986Z,3.03
2022-10-23T02:13:26.668Z,3.58
2022-10-23T02:16:04.699Z,3.60
2022-10-23T02:18:38.567Z,3.60
2022-10-23T02:21:11.231Z,3.35
2022-10-23T02:23:44.988Z,3.63
2022-10-23T02:26:19.550Z,3.30
2022-10-23T02:28:52.970Z,3.40
2022-10-23T02:31:24.216Z,3.15
2022-10-23T02:33:52.403Z,2.92
2022-10-23T02:36:20.557Z,3.17
2022-10-23T02:38:48.500Z,3.03
2022-10-23T02:41:26.112Z,3.67
2022-10-23T02:44:08.570Z,3.10
2022-10-23T02:46:45.552Z,3.40
2022-10-23T02:49:20.201Z,3.00
2022-10-23T02:51:58.276Z,3.83
2022-10-23T02:54:38.123Z,3.35
2022-10-23T02:57:17.426Z,3.85
2022-10-23T02:59:52.738Z,3.67
2022-10-23T03:02:23.248Z,3.35
2022-10-23T03:04:52.385Z,3.30
2022-10-23T03:07:21.138Z,3.20
2022-10-23T03:09:50.786Z,3.00
2022-10-23T03:12:18.743Z,3.05
2022-10-23T03:14:48.017Z,3.08
2022-10-23T03:17:16.454Z,3.80
2022-10-23T03:19:44.600Z,3.38
2022-10-23T03:22:12.690Z,3.80
2022-10-23T03:24:40.603Z,3.47
2022-10-23T03:27:08.536Z,3.70
2022-10-23T03:29:36.475Z,3.95
2022-10-23T03:32:06.237Z,3.92
2022-10-23T03:34:34.699Z,3.78
2022-10-23T03:37:02.625Z,3.92
2022-10-23T03:39:30.708Z,3.42
2022-10-23T03:41:58.969Z,3.15
2022-10-23T03:44:26.888Z,3.33
2022-10-23T03:46:56.232Z,3.72
2022-10-23T03:49:25.539Z,3.20
2022-10-23T03:51:54.812Z,3.83
2022-10-23T03:54:24.621Z,3.33
2022-10-23T03:56:56.497Z,3.78
2022-10-23T03:59:25.711Z,3.70
2022-10-23T04:01:53.731Z,3.50
2022-10-23T04:04:21.721Z,3.35
2022-10-23T04:06:51.017Z,3.72
2022-10-23T04:09:19.036Z,3.65
2022-10-23T04:11:47.061Z,3.60
2022-10-23T04:14:15.054Z,3.67
2022-10-23T04:16:43.224Z,3.10
2022-10-23T04:19:11.207Z,3.40
2022-10-23T04:21:40.876Z,3.50
2022-10-23T04:24:10.545Z,3.88
2022-10-23T04:26:38.463Z,3.83
2022-10-23T04:29:06.372Z,3.58
2022-10-23T04:31:34.263Z,3.20
2022-10-23T04:34:02.242Z,3.75
2022-10-23T04:36:30.283Z,3.08
2022-10-23T04:38:58.242Z,4.20
2022-10-23T04:41:27.589Z,4.00
2022-10-23T04:43:55.514Z,4.07
2022-10-23T04:46:23.485Z,3.58
2022-10-23T04:48:51.495Z,3.70
2022-10-23T04:51:19.372Z,3.80
2022-10-23T04:53:47.306Z,3.92
2022-10-23T04:56:16.314Z,4.20
2022-10-23T04:58:45.647Z,4.50
2022-10-23T05:01:13.686Z,4.13
2022-10-23T05:03:41.718Z,3.88
2022-10-23T05:06:12.738Z,4.05
2022-10-23T05:08:40.692Z,4.25
2022-10-23T05:11:08.637Z,5.00
2022-10-23T05:13:36.701Z,4.00
2022-10-23T05:16:06.480Z,3.85
2022-10-23T05:18:39.187Z,4.68
2022-10-23T05:21:14.102Z,3.67
2022-10-23T05:23:43.223Z,4.60
2022-10-23T05:26:11.247Z,4.18
2022-10-23T05:28:39.248Z,4.22
2022-10-23T05:33:37.337Z,3.70
2022-10-23T05:36:06.559Z,4.15
2022-10-23T05:38:35.895Z,4.38
2022-10-23T05:41:04.153Z,3.75
2022-10-23T05:46:00.641Z,4.07
2022-10-23T05:48:34.555Z,4.03
2022-10-23T05:51:06.985Z,3.63
2022-10-23T05:56:09.997Z,3.95
2022-10-23T06:01:07.621Z,4.47
2022-10-23T06:03:37.854Z,4.00
2022-10-23T06:06:06.805Z,3.75
2022-10-23T06:08:35.558Z,4.28
2022-10-23T06:11:08.403Z,5.38
2022-10-23T06:13:36.733Z,4.57
2022-10-23T06:16:11.617Z,6.40
2022-10-23T06:18:41.262Z,5.80
2022-10-23T06:23:38.200Z,4.28
2022-10-23T06:26:07.488Z,5.68
2022-10-23T06:28:35.530Z,4.43
2022-10-23T06:31:05.987Z,5.30
2022-10-23T06:33:34.123Z,4.88
2022-10-23T06:36:12.939Z,5.07
2022-10-23T06:38:41.335Z,5.53
2022-10-23T06:41:19.270Z,5.05
2022-10-23T06:43:49.464Z,4.72
2022-10-23T06:46:18.042Z,5.07
2022-10-23T06:48:46.138Z,4.65
2022-10-23T06:51:17.748Z,4.50
2022-10-23T06:53:46.254Z,5.70
2022-10-23T06:56:14.286Z,5.30
2022-10-23T06:58:42.445Z,5.13
2022-10-23T07:01:13.514Z,4.90
2022-10-23T07:03:41.639Z,5.53
2022-10-23T07:06:11.107Z,6.78
2022-10-23T07:08:40.558Z,5.43
2022-10-23T07:11:10.575Z,6.32
2022-10-23T07:13:40.493Z,6.63
2022-10-23T07:16:17.344Z,6.57
2022-10-23T07:18:46.247Z,7.32
2022-10-23T07:21:14.151Z,8.02
2022-10-23T07:23:43.614Z,8.43
2022-10-23T07:26:14.740Z,7.38
2022-10-23T07:28:43.799Z,8.20
2022-10-23T07:31:14.314Z,8.75
2022-10-23T07:33:42.316Z,8.48
2022-10-23T07:36:11.256Z,8.85
2022-10-23T07:38:39.220Z,8.13
2022-10-23T07:41:11.642Z,8.65
2022-10-23T07:43:40.780Z,7.57
2022-10-23T07:46:10.870Z,8.32
2022-10-23T07:48:39.580Z,8.75
2022-10-23T07:51:10.702Z,8.75
2022-10-23T07:53:39.337Z,8.70
2022-10-23T07:56:16.091Z,8.98
2022-10-23T07:58:44.591Z,7.70
2022-10-23T08:01:19.030Z,8.55
2022-10-23T08:03:47.153Z,7.40
2022-10-23T08:06:15.194Z,7.07
2022-10-23T08:33:35.293Z,3.57
2022-10-23T08:36:03.195Z,4.05
2022-10-23T08:38:31.182Z,3.92
2022-10-23T08:41:01.509Z,3.75
2022-10-23T08:43:37.230Z,3.30
2022-10-23T08:48:42.597Z,3.30
2022-10-23T08:51:28.192Z,3.38
2022-10-23T08:54:01.924Z,3.78
2022-10-23T08:56:33.677Z,2.92
2022-10-23T08:59:08.908Z,3.17
2022-10-23T09:01:41.797Z,2.92
2022-10-23T09:04:13.118Z,2.80
2022-10-23T09:06:47.508Z,2.40
2022-10-23T09:09:48.130Z,2.35
2022-10-23T09:12:19.192Z,2.65
2022-10-23T09:15:08.403Z,2.67
2022-10-23T09:17:39.115Z,3.13
2022-10-23T09:20:17.543Z,2.80
2022-10-23T09:22:46.374Z,2.40
2022-10-23T09:25:23.917Z,2.70
2022-10-23T09:27:56.201Z,2.50
2022-10-23T09:30:32.853Z,2.22
2022-10-23T09:33:01.262Z,2.20
2022-10-23T09:35:31.337Z,1.90
2022-10-23T09:37:59.493Z,1.85
2022-10-23T09:40:34.066Z,1.83
2022-10-23T09:43:04.760Z,1.70
2022-10-23T09:45:38.109Z,1.90
2022-10-23T09:48:19.019Z,2.13
2022-10-23T09:50:53.256Z,2.15
2022-10-23T09:53:30.657Z,1.83
2022-10-23T09:56:01.672Z,2.22
2022-10-23T09:58:36.558Z,2.03
2022-10-23T10:01:06.587Z,1.90
2022-10-23T10:03:34.779Z,2.20
2022-10-23T10:06:04.458Z,1.33
2022-10-23T10:08:44.370Z,1.35
2022-10-23T10:11:18.876Z,1.50
2022-10-23T10:14:10.051Z,1.25
2022-10-23T10:16:47.787Z,1.38
2022-10-23T10:19:37.424Z,1.45
2022-10-23T10:22:17.433Z,1.35
2022-10-23T10:24:53.447Z,1.60
2022-10-23T10:27:33.394Z,2.35
2022-10-23T10:30:11.572Z,1.30
2022-10-23T10:35:38.383Z,1.33
2022-10-23T10:38:32.523Z,1.85
2022-10-23T10:41:21.208Z,1.35
2022-10-23T10:44:00.885Z,1.05
2022-10-23T10:46:35.063Z,1.40
2022-10-23T10:49:08.597Z,1.52
2022-10-23T10:51:49.178Z,1.20
2022-10-23T10:54:33.918Z,1.20
2022-10-23T10:57:06.550Z,1.15
2022-10-23T10:59:39.318Z,1.20
2022-10-23T11:02:21.466Z,0.85
2022-10-23T11:07:30.093Z,0.95
2022-10-23T11:10:00.049Z,1.10
2022-10-23T11:12:29.529Z,0.98
2022-10-23T11:14:58.122Z,0.98
2022-10-23T11:17:31.542Z,0.77
2022-10-23T11:20:04.649Z,0.70
2022-10-23T11:22:38.572Z,1.00
2022-10-23T11:25:40.396Z,1.15
2022-10-23T11:28:21.141Z,0.83
2022-10-23T11:31:07.059Z,0.90
2022-10-23T11:34:05.803Z,1.05
2022-10-23T11:36:46.357Z,0.73
2022-10-23T11:39:23.473Z,0.90
2022-10-23T11:41:55.116Z,0.80
2022-10-23T11:44:42.131Z,1.10
2022-10-23T11:47:31.321Z,0.70
2022-10-23T11:50:26.970Z,0.73
2022-10-23T11:53:20.903Z,0.73
2022-10-23T11:56:04.279Z,1.05
2022-10-23T11:58:46.798Z,1.02
2022-10-23T12:01:37.156Z,0.80
2022-10-23T12:04:17.531Z,0.75
2022-10-23T12:06:48.746Z,1.20
2022-10-23T12:09:28.354Z,1.15
2022-10-23T12:12:29.225Z,0.70
2022-10-23T12:15:10.307Z,1.02
2022-10-23T12:20:37.801Z,0.90
2022-10-23T12:23:36.478Z,0.60
2022-10-23T12:26:29.343Z,0.82
2022-10-23T12:29:06.229Z,1.27
2022-10-23T12:31:48.015Z,0.90
2022-10-23T12:34:27.402Z,1.13
2022-10-23T12:37:12.269Z,1.05
2022-10-23T12:39:40.760Z,1.00
2022-10-23T12:42:21.567Z,0.80
2022-10-23T12:44:59.751Z,1.30
2022-10-23T12:47:30.953Z,1.05
2022-10-23T12:49:58.948Z,1.13
2022-10-23T12:52:27.005Z,0.68
2022-10-23T12:54:54.950Z,0.80
2022-10-23T12:57:26.378Z,0.88
2022-10-23T12:59:58.454Z,0.80
2022-10-23T13:04:57.279Z,0.85
2022-10-23T13:07:27.836Z,1.20
2022-10-23T13:09:56.597Z,1.13
2022-10-23T13:12:31.726Z,0.90
2022-10-23T13:15:03.335Z,1.05
2022-10-23T13:17:36.538Z,1.02
2022-10-23T13:20:27.564Z,0.80
2022-10-23T13:23:01.229Z,0.70
2022-10-23T13:25:31.233Z,0.65
2022-10-23T13:28:16.030Z,1.10
2022-10-23T13:30:47.136Z,0.80
2022-10-23T13:33:16.788Z,0.82
2022-10-23T13:35:44.913Z,0.80
2022-10-23T13:38:12.771Z,0.80
2022-10-23T13:40:40.833Z,1.10
2022-10-23T13:43:18.921Z,0.88
2022-10-23T13:45:48.974Z,0.77
2022-10-23T13:48:16.951Z,0.88
2022-10-23T13:50:45.077Z,0.70
2022-10-23T13:53:13.701Z,0.95
2022-10-23T13:55:44.598Z,0.85
2022-10-23T13:58:13.910Z,0.88
2022-10-23T14:00:43.677Z,0.65
2022-10-23T14:03:12.036Z,1.33
2022-10-23T14:05:40.051Z,0.93
2022-10-23T14:08:08.069Z,0.82
2022-10-23T14:10:36.114Z,1.10
2022-10-23T14:13:04.036Z,0.95
2022-10-23T14:15:33.323Z,0.73
2022-10-23T14:18:04.639Z,1.88
2022-10-23T14:20:35.348Z,0.88
2022-10-23T14:23:03.274Z,0.70
2022-10-23T14:25:31.636Z,0.70
2022-10-23T14:27:59.566Z,1.10
2022-10-23T14:30:27.486Z,0.80
2022-10-23T14:32:56.917Z,1.08
2022-10-23T14:35:27.736Z,0.98
2022-10-23T14:37:55.818Z,1.00
2022-10-23T14:40:23.857Z,1.20
2022-10-23T14:42:51.772Z,1.00
2022-10-23T14:45:19.843Z,1.10
2022-10-23T14:47:47.788Z,1.60
2022-10-23T14:50:17.336Z,1.05
2022-10-23T14:52:45.269Z,1.10
2022-10-23T14:55:13.203Z,1.48
2022-10-23T14:57:41.309Z,0.90
2022-10-23T15:00:11.331Z,0.98
2022-10-23T15:02:42.390Z,1.08
2022-10-23T15:05:10.748Z,1.23
2022-10-23T15:07:40.391Z,0.82
2022-10-23T15:10:09.631Z,1.27
2022-10-23T15:12:38.070Z,1.02
2022-10-23T15:15:07.683Z,1.05
2022-10-23T15:17:37.148Z,1.15
2022-10-23T15:20:05.816Z,0.98
2022-10-23T15:22:33.833Z,1.20
2022-10-23T15:25:03.274Z,1.60
2022-10-23T15:27:31.255Z,1.65
2022-10-23T15:29:59.167Z,1.00
2022-10-23T15:32:27.188Z,1.02
2022-10-23T15:34:56.607Z,1.17
2022-10-23T15:37:24.804Z,1.20
2022-10-23T15:39:52.801Z,1.05
2022-10-23T15:42:22.157Z,1.13
2022-10-23T15:44:50.219Z,1.40
2022-10-23T15:47:18.181Z,1.70
2022-10-23T15:49:48.376Z,1.10
2022-10-23T15:52:16.353Z,1.23
2022-10-23T15:54:44.302Z,1.23
2022-10-23T15:57:12.267Z,1.20
2022-10-23T15:59:41.700Z,1.75
2022-10-23T16:02:11.644Z,1.23
2022-10-23T16:04:39.673Z,1.40
2022-10-23T16:07:07.634Z,1.08
2022-10-23T16:09:35.621Z,1.40
2022-10-23T16:12:08.043Z,1.50
2022-10-23T16:17:05.159Z,1.77
2022-10-23T16:19:33.115Z,1.98
2022-10-23T16:22:02.870Z,1.88
2022-10-23T16:24:30.981Z,1.35
2022-10-23T16:26:58.999Z,1.45
2022-10-23T16:29:29.418Z,1.50
2022-10-23T16:32:00.795Z,1.85
2022-10-23T16:34:30.146Z,1.40
2022-10-23T16:36:58.080Z,1.90
2022-10-23T16:39:25.971Z,1.67
2022-10-23T16:41:53.912Z,1.80
2022-10-23T16:44:21.863Z,1.52
2022-10-23T16:46:49.805Z,1.52
2022-10-23T16:49:18.003Z,1.45
2022-10-23T16:51:47.421Z,1.40
2022-10-23T16:54:15.660Z,1.75
2022-10-23T16:56:44.900Z,1.70
2022-10-23T16:59:12.891Z,1.65
2022-10-23T17:01:41.255Z,2.00
2022-10-23T17:04:11.617Z,2.33
2022-10-23T17:06:39.563Z,3.45
2022-10-23T17:09:08.872Z,1.92
2022-10-23T17:11:39.606Z,1.80
2022-10-23T17:14:09.687Z,2.10
2022-10-23T17:16:39.860Z,2.30
2022-10-23T17:19:20.922Z,1.90
2022-10-23T17:21:58.222Z,2.53
2022-10-23T17:24:27.943Z,2.75
2022-10-23T17:26:56.178Z,2.60
2022-10-23T17:29:24.141Z,1.92
2022-10-23T17:31:52.544Z,2.50
2022-10-23T17:34:24.849Z,2.28
2022-10-23T17:36:55.862Z,2.20
2022-10-23T17:39:26.036Z,2.20
2022-10-23T17:41:56.129Z,2.25
2022-10-23T17:44:24.332Z,2.20
2022-10-23T17:46:53.886Z,3.85
2022-10-23T17:49:22.834Z,2.20
2022-10-23T17:51:53.650Z,2.40
2022-10-23T17:54:25.634Z,2.55
2022-10-23T17:56:55.211Z,2.60
2022-10-23T17:59:24.634Z,2.30
2022-10-23T18:01:55.042Z,2.78
2022-10-23T18:04:23.188Z,2.60
2022-10-23T18:06:56.887Z,2.47
2022-10-23T18:09:24.910Z,3.50
2022-10-23T18:11:53.151Z,3.72
2022-10-23T18:14:26.108Z,3.45
2022-10-23T18:16:56.558Z,2.47
2022-10-23T18:19:24.916Z,2.17
2022-10-23T18:21:53.395Z,2.42
2022-10-23T18:24:21.311Z,2.17
2022-10-23T18:26:49.541Z,2.42
2022-10-23T18:29:18.661Z,2.30
2022-10-23T18:31:49.390Z,3.38
2022-10-23T18:34:22.416Z,3.22
2022-10-23T18:36:54.058Z,2.97
2022-10-23T18:39:24.648Z,2.73
2022-10-23T18:41:56.184Z,2.58
2022-10-23T18:44:25.420Z,2.47
2022-10-23T18:46:55.057Z,7.38
2022-10-23T18:49:25.675Z,2.55
2022-10-23T18:51:53.707Z,2.83
2022-10-23T18:54:22.767Z,2.70
2022-10-23T18:56:50.799Z,3.08
2022-10-23T18:59:21.041Z,2.97
2022-10-23T19:01:49.386Z,2.67
2022-10-23T19:04:19.479Z,2.92
2022-10-23T19:06:48.768Z,2.70
2022-10-23T19:09:19.031Z,2.97
2022-10-23T19:11:50.549Z,2.60
2022-10-23T19:14:18.582Z,3.15
2022-10-23T19:16:55.746Z,2.80
2022-10-23T19:19:28.380Z,3.40
2022-10-23T19:21:58.740Z,3.00
2022-10-23T19:24:33.162Z,2.65
2022-10-23T19:27:04.527Z,2.67
2022-10-23T19:29:33.373Z,3.17
2022-10-23T19:32:01.773Z,2.88
2022-10-23T19:34:31.120Z,3.05
2022-10-23T19:36:59.027Z,2.85
2022-10-23T19:39:29.946Z,3.00
2022-10-23T19:41:58.516Z,3.47
2022-10-23T19:44:26.477Z,3.20
2022-10-23T19:46:54.443Z,4.45
2022-10-23T19:49:23.850Z,3.85
2022-10-23T19:51:53.299Z,3.33
2022-10-23T19:54:23.470Z,3.45
2022-10-23T19:56:51.589Z,3.47
2022-10-23T19:59:19.889Z,4.10
2022-10-23T20:01:50.919Z,3.63
2022-10-23T20:04:19.424Z,3.35
2022-10-23T20:06:47.846Z,2.90
2022-10-23T20:09:17.216Z,3.13
2022-10-23T20:11:45.664Z,3.58
2022-10-23T20:14:14.274Z,3.47
2022-10-23T20:16:44.754Z,3.38
2022-10-23T20:19:15.285Z,2.78
2022-10-23T20:21:47.223Z,4.47
2022-10-23T20:24:20.785Z,2.92
2022-10-23T20:26:51.962Z,2.92
2022-10-23T20:29:21.010Z,2.92
2022-10-23T20:31:49.795Z,3.58
2022-10-23T20:34:19.061Z,3.08
2022-10-23T20:36:49.725Z,3.08
2022-10-23T20:39:21.824Z,3.20
2022-10-23T20:41:49.816Z,2.97
2022-10-23T20:44:19.390Z,2.75
2022-10-23T20:46:47.986Z,3.60
2022-10-23T20:49:16.875Z,3.15
2022-10-23T20:51:44.939Z,2.92
2022-10-23T20:54:13.001Z,3.97
2022-10-23T20:56:42.282Z,3.75
2022-10-23T20:59:13.570Z,2.75
2022-10-23T21:01:42.965Z,3.40
2022-10-23T21:04:13.091Z,3.22
2022-10-23T21:06:57.821Z,2.88
2022-10-23T21:09:31.242Z,2.60
2022-10-23T21:12:00.620Z,2.58
2022-10-23T21:14:28.676Z,2.97
2022-10-23T21:16:57.996Z,2.97
2022-10-23T21:19:25.908Z,2.60
2022-10-23T21:21:54.008Z,2.58
2022-10-23T21:24:21.951Z,2.88
2022-10-23T21:26:50.042Z,2.65
2022-10-23T21:29:20.482Z,2.30
2022-10-23T21:31:53.687Z,2.78
2022-10-23T21:34:21.680Z,3.28
2022-10-23T21:39:37.647Z,2.28
2022-10-23T21:42:06.179Z,1.98
2022-10-23T21:44:35.529Z,2.88
2022-10-23T21:47:03.590Z,2.30
2022-10-23T21:49:31.561Z,2.33
2022-10-23T21:51:59.580Z,2.65
2022-10-23T21:54:27.468Z,2.13
2022-10-23T21:56:57.821Z,2.25
2022-10-23T21:59:31.500Z,2.38
2022-10-23T22:02:02.553Z,2.25
2022-10-23T22:04:30.596Z,2.55
2022-10-23T22:06:58.497Z,1.83
2022-10-23T22:09:26.392Z,2.45
2022-10-23T22:11:55.215Z,2.03
2022-10-23T22:14:23.913Z,2.55
2022-10-23T22:16:52.177Z,2.00
2022-10-23T22:19:22.807Z,2.10
2022-10-23T22:21:52.068Z,2.75
2022-10-23T22:24:20.492Z,2.28
2022-10-23T22:26:51.438Z,2.28
2022-10-23T22:29:21.368Z,3.13
2022-10-23T22:31:50.109Z,2.47
2022-10-23T22:34:27.038Z,2.42
2022-10-23T22:37:10.635Z,2.13
2022-10-23T22:39:38.825Z,2.20
2022-10-23T22:42:06.978Z,2.20
2022-10-23T22:44:34.971Z,1.90
2022-10-23T22:47:02.958Z,2.03
2022-10-23T22:49:32.285Z,2.38
2022-10-23T22:52:00.159Z,2.50
2022-10-23T22:54:30.456Z,3.13
2022-10-23T22:56:58.678Z,3.45
2022-10-23T22:59:32.539Z,2.00
2022-10-23T23:02:00.564Z,1.95
2022-10-23T23:04:43.808Z,2.20
2022-10-23T23:07:13.826Z,1.65
2022-10-23T23:09:43.749Z,2.20
2022-10-23T23:12:14.279Z,2.00
2022-10-23T23:14:43.061Z,2.03
2022-10-23T23:17:11.401Z,2.33
2022-10-23T23:19:39.787Z,1.70
2022-10-23T23:22:07.737Z,1.90
2022-10-23T23:24:37.012Z,2.20
2022-10-23T23:27:05.040Z,2.22
2022-10-23T23:29:33.176Z,2.38
2022-10-23T23:32:01.320Z,2.53
2022-10-23T23:34:30.143Z,2.92
2022-10-23T23:36:58.082Z,2.03
2022-10-23T23:39:28.423Z,2.42
2022-10-23T23:41:57.874Z,2.58
2022-10-23T23:44:25.831Z,2.30
2022-10-23T23:46:53.739Z,2.75
2022-10-23T23:49:21.641Z,2.33
2022-10-23T23:51:49.769Z,2.58
2022-10-23T23:54:17.937Z,2.53
2022-10-23T23:56:46.888Z,3.17
2022-10-23T23:59:16.146Z,2.60
